sensor_id;sensor_type;location;lat;lon;timestamp;P1;durP1;ratioP1;P2;durP2;ratioP2
68484;SDS011;55472;50.060;21.960;2023-09-19T00:00:45;14.40;;;5.85;;
68484;SDS011;55472;50.060;21.960;2023-09-19T00:03:32;12.93;;;5.50;;
68484;SDS011;55472;50.060;21.960;2023-09-19T00:05:58;12.48;;;5.50;;
68484;SDS011;55472;50.060;21.960;2023-09-19T00:08:25;10.00;;;5.00;;
68484;SDS011;55472;50.060;21.960;2023-09-19T00:10:51;15.80;;;5.73;;
68484;SDS011;55472;50.060;21.960;2023-09-19T00:13:20;11.18;;;5.45;;
68484;SDS011;55472;50.060;21.960;2023-09-19T00:15:47;11.25;;;5.40;;
68484;SDS011;55472;50.060;21.960;2023-09-19T00:18:14;10.65;;;5.38;;
68484;SDS011;55472;50.060;21.960;2023-09-19T00:20:47;11.35;;;5.30;;
68484;SDS011;55472;50.060;21.960;2023-09-19T00:23:14;10.30;;;5.53;;
68484;SDS011;55472;50.060;21.960;2023-09-19T00:25:40;11.93;;;5.70;;
68484;SDS011;55472;50.060;21.960;2023-09-19T00:28:07;12.18;;;5.40;;
68484;SDS011;55472;50.060;21.960;2023-09-19T00:30:34;8.85;;;4.85;;
68484;SDS011;55472;50.060;21.960;2023-09-19T00:33:00;10.82;;;5.18;;
68484;SDS011;55472;50.060;21.960;2023-09-19T00:35:31;11.03;;;6.00;;
68484;SDS011;55472;50.060;21.960;2023-09-19T00:37:58;11.50;;;5.25;;
68484;SDS011;55472;50.060;21.960;2023-09-19T00:40:24;9.88;;;5.20;;
68484;SDS011;55472;50.060;21.960;2023-09-19T00:42:51;12.13;;;5.57;;
68484;SDS011;55472;50.060;21.960;2023-09-19T00:45:25;10.40;;;5.50;;
68484;SDS011;55472;50.060;21.960;2023-09-19T00:47:51;10.47;;;5.10;;
68484;SDS011;55472;50.060;21.960;2023-09-19T00:50:18;9.63;;;5.05;;
68484;SDS011;55472;50.060;21.960;2023-09-19T00:52:48;9.25;;;5.18;;
68484;SDS011;55472;50.060;21.960;2023-09-19T00:55:16;10.35;;;5.40;;
68484;SDS011;55472;50.060;21.960;2023-09-19T00:57:45;15.35;;;5.28;;
68484;SDS011;55472;50.060;21.960;2023-09-19T01:00:16;9.80;;;4.70;;
68484;SDS011;55472;50.060;21.960;2023-09-19T01:02:44;10.10;;;4.72;;
68484;SDS011;55472;50.060;21.960;2023-09-19T01:05:12;11.10;;;4.95;;
68484;SDS011;55472;50.060;21.960;2023-09-19T01:07:41;9.30;;;4.50;;
68484;SDS011;55472;50.060;21.960;2023-09-19T01:10:11;9.25;;;4.43;;
68484;SDS011;55472;50.060;21.960;2023-09-19T01:13:00;10.43;;;4.63;;
68484;SDS011;55472;50.060;21.960;2023-09-19T01:18:43;9.43;;;4.30;;
68484;SDS011;55472;50.060;21.960;2023-09-19T01:24:22;8.65;;;5.10;;
68484;SDS011;55472;50.060;21.960;2023-09-19T01:30:35;10.23;;;4.50;;
68484;SDS011;55472;50.060;21.960;2023-09-19T01:33:09;8.88;;;4.32;;
68484;SDS011;55472;50.060;21.960;2023-09-19T01:35:38;8.15;;;4.45;;
68484;SDS011;55472;50.060;21.960;2023-09-19T01:38:08;8.98;;;4.57;;
68484;SDS011;55472;50.060;21.960;2023-09-19T01:40:42;8.50;;;4.40;;
68484;SDS011;55472;50.060;21.960;2023-09-19T01:43:20;10.98;;;4.60;;
68484;SDS011;55472;50.060;21.960;2023-09-19T01:52:12;8.60;;;4.85;;
68484;SDS011;55472;50.060;21.960;2023-09-19T01:54:50;12.53;;;4.93;;
68484;SDS011;55472;50.060;21.960;2023-09-19T02:00:16;10.70;;;4.60;;
68484;SDS011;55472;50.060;21.960;2023-09-19T02:02:49;9.30;;;4.50;;
68484;SDS011;55472;50.060;21.960;2023-09-19T02:05:24;10.32;;;5.15;;
68484;SDS011;55472;50.060;21.960;2023-09-19T02:07:54;9.17;;;5.27;;
68484;SDS011;55472;50.060;21.960;2023-09-19T02:10:21;9.27;;;4.75;;
68484;SDS011;55472;50.060;21.960;2023-09-19T02:12:48;8.02;;;4.47;;
68484;SDS011;55472;50.060;21.960;2023-09-19T02:15:16;8.32;;;4.38;;
68484;SDS011;55472;50.060;21.960;2023-09-19T02:17:42;9.23;;;5.03;;
68484;SDS011;55472;50.060;21.960;2023-09-19T02:20:10;11.37;;;4.37;;
68484;SDS011;55472;50.060;21.960;2023-09-19T02:22:43;7.72;;;4.63;;
68484;SDS011;55472;50.060;21.960;2023-09-19T02:25:10;8.55;;;4.70;;
68484;SDS011;55472;50.060;21.960;2023-09-19T02:27:36;10.65;;;4.70;;
68484;SDS011;55472;50.060;21.960;2023-09-19T02:30:03;10.52;;;4.68;;
68484;SDS011;55472;50.060;21.960;2023-09-19T02:32:31;10.50;;;4.97;;
68484;SDS011;55472;50.060;21.960;2023-09-19T02:35:01;8.93;;;4.22;;
68484;SDS011;55472;50.060;21.960;2023-09-19T02:37:27;7.10;;;4.47;;
68484;SDS011;55472;50.060;21.960;2023-09-19T02:39:53;8.32;;;4.30;;
68484;SDS011;55472;50.060;21.960;2023-09-19T02:42:19;7.90;;;4.18;;
68484;SDS011;55472;50.060;21.960;2023-09-19T02:44:46;8.63;;;4.73;;
68484;SDS011;55472;50.060;21.960;2023-09-19T02:47:13;8.75;;;4.65;;
68484;SDS011;55472;50.060;21.960;2023-09-19T02:49:40;9.45;;;4.82;;
68484;SDS011;55472;50.060;21.960;2023-09-19T02:52:07;7.65;;;4.40;;
68484;SDS011;55472;50.060;21.960;2023-09-19T02:54:34;11.35;;;5.50;;
68484;SDS011;55472;50.060;21.960;2023-09-19T02:57:00;9.40;;;5.00;;
68484;SDS011;55472;50.060;21.960;2023-09-19T02:59:26;11.43;;;4.85;;
68484;SDS011;55472;50.060;21.960;2023-09-19T03:01:53;8.18;;;4.57;;
68484;SDS011;55472;50.060;21.960;2023-09-19T03:04:20;10.70;;;4.95;;
68484;SDS011;55472;50.060;21.960;2023-09-19T03:06:46;8.55;;;4.68;;
68484;SDS011;55472;50.060;21.960;2023-09-19T03:09:14;7.90;;;4.60;;
68484;SDS011;55472;50.060;21.960;2023-09-19T03:11:41;8.85;;;4.60;;
68484;SDS011;55472;50.060;21.960;2023-09-19T03:14:08;11.43;;;4.65;;
68484;SDS011;55472;50.060;21.960;2023-09-19T03:16:35;7.25;;;4.32;;
68484;SDS011;55472;50.060;21.960;2023-09-19T03:19:03;8.27;;;4.43;;
68484;SDS011;55472;50.060;21.960;2023-09-19T03:21:30;8.07;;;4.43;;
68484;SDS011;55472;50.060;21.960;2023-09-19T03:23:56;10.10;;;4.75;;
68484;SDS011;55472;50.060;21.960;2023-09-19T03:26:22;8.32;;;4.88;;
68484;SDS011;55472;50.060;21.960;2023-09-19T03:28:48;10.77;;;4.82;;
68484;SDS011;55472;50.060;21.960;2023-09-19T03:31:14;8.65;;;4.75;;
68484;SDS011;55472;50.060;21.960;2023-09-19T03:33:41;10.63;;;4.63;;
68484;SDS011;55472;50.060;21.960;2023-09-19T03:36:07;10.80;;;4.25;;
68484;SDS011;55472;50.060;21.960;2023-09-19T03:38:33;9.98;;;4.82;;
68484;SDS011;55472;50.060;21.960;2023-09-19T03:41:00;9.60;;;4.80;;
68484;SDS011;55472;50.060;21.960;2023-09-19T03:43:27;8.55;;;5.03;;
68484;SDS011;55472;50.060;21.960;2023-09-19T03:45:53;11.07;;;5.67;;
68484;SDS011;55472;50.060;21.960;2023-09-19T03:48:20;10.55;;;4.80;;
68484;SDS011;55472;50.060;21.960;2023-09-19T03:50:47;9.20;;;5.18;;
68484;SDS011;55472;50.060;21.960;2023-09-19T03:53:14;10.93;;;5.85;;
68484;SDS011;55472;50.060;21.960;2023-09-19T03:55:39;11.60;;;5.63;;
68484;SDS011;55472;50.060;21.960;2023-09-19T03:58:06;9.03;;;5.80;;
68484;SDS011;55472;50.060;21.960;2023-09-19T04:00:32;11.68;;;5.55;;
68484;SDS011;55472;50.060;21.960;2023-09-19T04:03:00;11.07;;;5.63;;
68484;SDS011;55472;50.060;21.960;2023-09-19T04:05:30;13.48;;;5.50;;
68484;SDS011;55472;50.060;21.960;2023-09-19T04:07:57;9.68;;;5.85;;
68484;SDS011;55472;50.060;21.960;2023-09-19T04:10:23;11.03;;;6.23;;
68484;SDS011;55472;50.060;21.960;2023-09-19T04:12:55;15.45;;;6.43;;
68484;SDS011;55472;50.060;21.960;2023-09-19T04:15:22;11.32;;;5.68;;
68484;SDS011;55472;50.060;21.960;2023-09-19T04:17:49;9.32;;;5.72;;
68484;SDS011;55472;50.060;21.960;2023-09-19T04:20:19;10.83;;;5.77;;
68484;SDS011;55472;50.060;21.960;2023-09-19T04:22:48;12.77;;;6.57;;
68484;SDS011;55472;50.060;21.960;2023-09-19T04:25:15;9.80;;;6.07;;
68484;SDS011;55472;50.060;21.960;2023-09-19T04:27:41;12.80;;;6.30;;
68484;SDS011;55472;50.060;21.960;2023-09-19T04:30:07;10.30;;;6.07;;
68484;SDS011;55472;50.060;21.960;2023-09-19T04:32:36;11.87;;;6.13;;
68484;SDS011;55472;50.060;21.960;2023-09-19T04:35:08;10.18;;;5.82;;
68484;SDS011;55472;50.060;21.960;2023-09-19T04:37:37;13.23;;;5.43;;
68484;SDS011;55472;50.060;21.960;2023-09-19T04:40:08;9.52;;;6.22;;
68484;SDS011;55472;50.060;21.960;2023-09-19T04:42:40;9.30;;;5.70;;
68484;SDS011;55472;50.060;21.960;2023-09-19T04:45:07;11.50;;;5.50;;
68484;SDS011;55472;50.060;21.960;2023-09-19T04:47:36;9.95;;;5.10;;
68484;SDS011;55472;50.060;21.960;2023-09-19T04:50:07;9.98;;;5.55;;
68484;SDS011;55472;50.060;21.960;2023-09-19T04:52:41;12.73;;;6.65;;
68484;SDS011;55472;50.060;21.960;2023-09-19T04:55:15;9.95;;;5.68;;
68484;SDS011;55472;50.060;21.960;2023-09-19T04:57:45;9.53;;;5.10;;
68484;SDS011;55472;50.060;21.960;2023-09-19T05:00:20;9.05;;;5.18;;
68484;SDS011;55472;50.060;21.960;2023-09-19T05:02:56;13.48;;;5.65;;
68484;SDS011;55472;50.060;21.960;2023-09-19T05:05:22;9.00;;;5.53;;
68484;SDS011;55472;50.060;21.960;2023-09-19T05:07:51;12.02;;;6.32;;
68484;SDS011;55472;50.060;21.960;2023-09-19T05:10:19;12.87;;;5.63;;
68484;SDS011;55472;50.060;21.960;2023-09-19T05:12:46;9.98;;;5.65;;
68484;SDS011;55472;50.060;21.960;2023-09-19T05:15:13;9.93;;;5.43;;
68484;SDS011;55472;50.060;21.960;2023-09-19T05:17:41;9.85;;;5.50;;
68484;SDS011;55472;50.060;21.960;2023-09-19T05:20:07;9.30;;;5.47;;
68484;SDS011;55472;50.060;21.960;2023-09-19T05:23:07;9.93;;;5.43;;
68484;SDS011;55472;50.060;21.960;2023-09-19T05:25:37;12.05;;;5.85;;
68484;SDS011;55472;50.060;21.960;2023-09-19T05:28:05;8.85;;;5.00;;
68484;SDS011;55472;50.060;21.960;2023-09-19T05:30:33;10.32;;;5.82;;
68484;SDS011;55472;50.060;21.960;2023-09-19T05:33:08;9.40;;;5.70;;
68484;SDS011;55472;50.060;21.960;2023-09-19T05:35:35;10.97;;;5.57;;
68484;SDS011;55472;50.060;21.960;2023-09-19T05:38:07;11.43;;;5.82;;
68484;SDS011;55472;50.060;21.960;2023-09-19T05:40:38;10.25;;;6.00;;
68484;SDS011;55472;50.060;21.960;2023-09-19T05:43:08;9.25;;;5.53;;
68484;SDS011;55472;50.060;21.960;2023-09-19T05:45:34;11.93;;;5.75;;
68484;SDS011;55472;50.060;21.960;2023-09-19T05:48:09;10.23;;;5.43;;
68484;SDS011;55472;50.060;21.960;2023-09-19T05:50:38;8.85;;;5.40;;
68484;SDS011;55472;50.060;21.960;2023-09-19T05:53:06;9.82;;;4.97;;
68484;SDS011;55472;50.060;21.960;2023-09-19T05:55:32;11.80;;;5.90;;
68484;SDS011;55472;50.060;21.960;2023-09-19T05:57:59;8.93;;;5.38;;
68484;SDS011;55472;50.060;21.960;2023-09-19T06:00:25;10.17;;;5.50;;
68484;SDS011;55472;50.060;21.960;2023-09-19T06:02:57;9.45;;;5.43;;
68484;SDS011;55472;50.060;21.960;2023-09-19T06:05:25;9.88;;;5.75;;
68484;SDS011;55472;50.060;21.960;2023-09-19T06:07:53;10.30;;;5.50;;
68484;SDS011;55472;50.060;21.960;2023-09-19T06:10:19;10.35;;;5.43;;
68484;SDS011;55472;50.060;21.960;2023-09-19T06:12:52;10.30;;;5.73;;
68484;SDS011;55472;50.060;21.960;2023-09-19T06:15:21;10.90;;;5.82;;
68484;SDS011;55472;50.060;21.960;2023-09-19T06:17:54;10.52;;;5.50;;
68484;SDS011;55472;50.060;21.960;2023-09-19T06:20:22;10.40;;;5.57;;
68484;SDS011;55472;50.060;21.960;2023-09-19T06:22:50;9.93;;;5.13;;
68484;SDS011;55472;50.060;21.960;2023-09-19T06:25:17;9.33;;;4.97;;
68484;SDS011;55472;50.060;21.960;2023-09-19T06:27:51;7.88;;;5.30;;
68484;SDS011;55472;50.060;21.960;2023-09-19T06:30:19;11.70;;;5.18;;
68484;SDS011;55472;50.060;21.960;2023-09-19T06:32:48;9.60;;;5.38;;
68484;SDS011;55472;50.060;21.960;2023-09-19T06:35:15;12.48;;;5.38;;
68484;SDS011;55472;50.060;21.960;2023-09-19T06:37:42;9.07;;;5.03;;
68484;SDS011;55472;50.060;21.960;2023-09-19T06:40:12;9.02;;;5.00;;
68484;SDS011;55472;50.060;21.960;2023-09-19T06:42:40;9.55;;;5.65;;
68484;SDS011;55472;50.060;21.960;2023-09-19T06:45:16;10.07;;;5.47;;
68484;SDS011;55472;50.060;21.960;2023-09-19T06:47:50;8.18;;;5.32;;
68484;SDS011;55472;50.060;21.960;2023-09-19T06:50:17;9.43;;;6.33;;
68484;SDS011;55472;50.060;21.960;2023-09-19T06:56:03;14.02;;;8.00;;
68484;SDS011;55472;50.060;21.960;2023-09-19T06:58:29;10.13;;;5.75;;
68484;SDS011;55472;50.060;21.960;2023-09-19T07:00:57;9.18;;;6.03;;
68484;SDS011;55472;50.060;21.960;2023-09-19T07:03:23;11.67;;;6.33;;
68484;SDS011;55472;50.060;21.960;2023-09-19T07:05:54;9.80;;;6.15;;
68484;SDS011;55472;50.060;21.960;2023-09-19T07:08:21;10.27;;;5.85;;
68484;SDS011;55472;50.060;21.960;2023-09-19T07:10:47;11.55;;;5.90;;
68484;SDS011;55472;50.060;21.960;2023-09-19T07:13:14;9.25;;;5.97;;
68484;SDS011;55472;50.060;21.960;2023-09-19T07:15:44;9.43;;;5.27;;
68484;SDS011;55472;50.060;21.960;2023-09-19T07:18:33;7.47;;;4.60;;
68484;SDS011;55472;50.060;21.960;2023-09-19T07:21:00;9.27;;;5.00;;
68484;SDS011;55472;50.060;21.960;2023-09-19T07:23:30;9.15;;;5.13;;
68484;SDS011;55472;50.060;21.960;2023-09-19T07:26:06;7.95;;;4.82;;
68484;SDS011;55472;50.060;21.960;2023-09-19T07:28:41;7.80;;;4.77;;
68484;SDS011;55472;50.060;21.960;2023-09-19T07:39:51;8.48;;;4.10;;
68484;SDS011;55472;50.060;21.960;2023-09-19T07:42:37;6.55;;;3.97;;
68484;SDS011;55472;50.060;21.960;2023-09-19T07:45:21;9.30;;;4.40;;
68484;SDS011;55472;50.060;21.960;2023-09-19T07:50:52;8.15;;;4.13;;
68484;SDS011;55472;50.060;21.960;2023-09-19T07:53:50;7.18;;;3.58;;
68484;SDS011;55472;50.060;21.960;2023-09-19T07:56:25;6.22;;;3.92;;
68484;SDS011;55472;50.060;21.960;2023-09-19T07:58:58;8.77;;;4.37;;
68484;SDS011;55472;50.060;21.960;2023-09-19T08:01:36;7.57;;;3.72;;
68484;SDS011;55472;50.060;21.960;2023-09-19T08:04:14;9.00;;;4.90;;
68484;SDS011;55472;50.060;21.960;2023-09-19T08:07:03;10.93;;;4.97;;
68484;SDS011;55472;50.060;21.960;2023-09-19T08:09:50;9.68;;;5.03;;
68484;SDS011;55472;50.060;21.960;2023-09-19T08:15:34;9.88;;;5.05;;
68484;SDS011;55472;50.060;21.960;2023-09-19T08:18:01;9.93;;;5.47;;
68484;SDS011;55472;50.060;21.960;2023-09-19T08:20:27;9.55;;;5.85;;
68484;SDS011;55472;50.060;21.960;2023-09-19T08:22:53;8.77;;;5.40;;
68484;SDS011;55472;50.060;21.960;2023-09-19T08:25:22;8.83;;;5.53;;
68484;SDS011;55472;50.060;21.960;2023-09-19T08:27:50;12.00;;;5.82;;
68484;SDS011;55472;50.060;21.960;2023-09-19T08:30:17;10.70;;;5.90;;
68484;SDS011;55472;50.060;21.960;2023-09-19T08:32:50;10.63;;;5.60;;
68484;SDS011;55472;50.060;21.960;2023-09-19T08:35:16;10.38;;;5.90;;
68484;SDS011;55472;50.060;21.960;2023-09-19T08:37:43;9.60;;;5.73;;
68484;SDS011;55472;50.060;21.960;2023-09-19T08:40:11;10.05;;;5.95;;
68484;SDS011;55472;50.060;21.960;2023-09-19T08:45:15;9.23;;;5.57;;
68484;SDS011;55472;50.060;21.960;2023-09-19T08:47:46;10.55;;;5.68;;
68484;SDS011;55472;50.060;21.960;2023-09-19T08:50:19;10.63;;;5.63;;
68484;SDS011;55472;50.060;21.960;2023-09-19T08:52:55;11.00;;;5.45;;
68484;SDS011;55472;50.060;21.960;2023-09-19T08:55:31;8.68;;;5.40;;
68484;SDS011;55472;50.060;21.960;2023-09-19T08:58:03;8.90;;;5.47;;
68484;SDS011;55472;50.060;21.960;2023-09-19T09:00:32;9.85;;;6.20;;
68484;SDS011;55472;50.060;21.960;2023-09-19T09:03:00;10.77;;;5.23;;
68484;SDS011;55472;50.060;21.960;2023-09-19T09:05:29;12.68;;;5.40;;
68484;SDS011;55472;50.060;21.960;2023-09-19T09:07:57;10.00;;;5.30;;
68484;SDS011;55472;50.060;21.960;2023-09-19T09:10:25;9.32;;;5.38;;
68484;SDS011;55472;50.060;21.960;2023-09-19T09:12:52;7.68;;;4.90;;
68484;SDS011;55472;50.060;21.960;2023-09-19T09:15:23;10.00;;;5.63;;
68484;SDS011;55472;50.060;21.960;2023-09-19T09:17:50;19.60;;;10.27;;
68484;SDS011;55472;50.060;21.960;2023-09-19T09:20:18;10.68;;;5.90;;
68484;SDS011;55472;50.060;21.960;2023-09-19T09:22:54;10.35;;;5.90;;
68484;SDS011;55472;50.060;21.960;2023-09-19T09:28:33;8.90;;;5.40;;
68484;SDS011;55472;50.060;21.960;2023-09-19T09:31:01;8.50;;;4.90;;
68484;SDS011;55472;50.060;21.960;2023-09-19T09:33:33;8.20;;;5.15;;
68484;SDS011;55472;50.060;21.960;2023-09-19T09:36:01;9.10;;;5.13;;
68484;SDS011;55472;50.060;21.960;2023-09-19T09:38:42;7.93;;;5.18;;
68484;SDS011;55472;50.060;21.960;2023-09-19T09:41:16;10.03;;;5.40;;
68484;SDS011;55472;50.060;21.960;2023-09-19T09:43:53;10.55;;;5.35;;
68484;SDS011;55472;50.060;21.960;2023-09-19T09:46:20;7.70;;;4.72;;
68484;SDS011;55472;50.060;21.960;2023-09-19T09:48:57;7.68;;;4.80;;
68484;SDS011;55472;50.060;21.960;2023-09-19T09:51:48;9.43;;;4.47;;
68484;SDS011;55472;50.060;21.960;2023-09-19T09:54:25;8.23;;;4.67;;
68484;SDS011;55472;50.060;21.960;2023-09-19T09:57:06;11.10;;;4.20;;
68484;SDS011;55472;50.060;21.960;2023-09-19T09:59:43;9.38;;;4.75;;
68484;SDS011;55472;50.060;21.960;2023-09-19T10:02:19;7.55;;;4.90;;
68484;SDS011;55472;50.060;21.960;2023-09-19T10:05:12;8.80;;;5.63;;
68484;SDS011;55472;50.060;21.960;2023-09-19T10:07:42;8.50;;;4.90;;
68484;SDS011;55472;50.060;21.960;2023-09-19T10:10:32;7.30;;;4.85;;
68484;SDS011;55472;50.060;21.960;2023-09-19T10:13:12;10.90;;;4.90;;
68484;SDS011;55472;50.060;21.960;2023-09-19T10:15:44;7.82;;;4.57;;
68484;SDS011;55472;50.060;21.960;2023-09-19T10:18:21;9.98;;;5.30;;
68484;SDS011;55472;50.060;21.960;2023-09-19T10:20:50;10.80;;;6.00;;
68484;SDS011;55472;50.060;21.960;2023-09-19T10:23:23;14.23;;;6.47;;
68484;SDS011;55472;50.060;21.960;2023-09-19T10:25:55;9.38;;;5.18;;
68484;SDS011;55472;50.060;21.960;2023-09-19T10:28:22;10.93;;;6.05;;
68484;SDS011;55472;50.060;21.960;2023-09-19T10:30:54;10.50;;;6.10;;
68484;SDS011;55472;50.060;21.960;2023-09-19T10:33:22;12.77;;;5.87;;
68484;SDS011;55472;50.060;21.960;2023-09-19T10:35:53;9.30;;;5.20;;
68484;SDS011;55472;50.060;21.960;2023-09-19T10:38:25;9.18;;;5.15;;
68484;SDS011;55472;50.060;21.960;2023-09-19T10:40:55;10.55;;;5.57;;
68484;SDS011;55472;50.060;21.960;2023-09-19T10:43:26;8.18;;;5.22;;
68484;SDS011;55472;50.060;21.960;2023-09-19T10:46:00;10.13;;;5.60;;
68484;SDS011;55472;50.060;21.960;2023-09-19T10:48:31;8.90;;;5.28;;
68484;SDS011;55472;50.060;21.960;2023-09-19T10:53:40;11.23;;;5.95;;
68484;SDS011;55472;50.060;21.960;2023-09-19T10:56:18;8.57;;;5.50;;
68484;SDS011;55472;50.060;21.960;2023-09-19T10:58:49;7.20;;;4.13;;
68484;SDS011;55472;50.060;21.960;2023-09-19T11:01:16;8.52;;;4.65;;
68484;SDS011;55472;50.060;21.960;2023-09-19T11:03:43;7.75;;;4.93;;
68484;SDS011;55472;50.060;21.960;2023-09-19T11:06:14;7.80;;;4.32;;
68484;SDS011;55472;50.060;21.960;2023-09-19T11:11:39;8.47;;;4.10;;
68484;SDS011;55472;50.060;21.960;2023-09-19T11:30:33;6.47;;;3.20;;
68484;SDS011;55472;50.060;21.960;2023-09-19T11:33:22;5.10;;;2.75;;
68484;SDS011;55472;50.060;21.960;2023-09-19T11:36:05;6.90;;;2.85;;
68484;SDS011;55472;50.060;21.960;2023-09-19T11:46:29;5.88;;;2.70;;
68484;SDS011;55472;50.060;21.960;2023-09-19T11:49:07;5.53;;;2.92;;
68484;SDS011;55472;50.060;21.960;2023-09-19T11:51:42;4.90;;;2.83;;
68484;SDS011;55472;50.060;21.960;2023-09-19T11:54:10;4.85;;;2.95;;
68484;SDS011;55472;50.060;21.960;2023-09-19T11:56:44;6.05;;;3.20;;
68484;SDS011;55472;50.060;21.960;2023-09-19T11:59:19;5.18;;;2.97;;
68484;SDS011;55472;50.060;21.960;2023-09-19T12:01:56;5.68;;;2.97;;
68484;SDS011;55472;50.060;21.960;2023-09-19T12:04:33;4.90;;;2.63;;
68484;SDS011;55472;50.060;21.960;2023-09-19T12:07:12;5.45;;;2.85;;
68484;SDS011;55472;50.060;21.960;2023-09-19T12:09:42;4.78;;;2.60;;
68484;SDS011;55472;50.060;21.960;2023-09-19T12:12:10;6.07;;;3.15;;
68484;SDS011;55472;50.060;21.960;2023-09-19T12:14:51;5.38;;;2.90;;
68484;SDS011;55472;50.060;21.960;2023-09-19T12:17:17;5.80;;;2.80;;
68484;SDS011;55472;50.060;21.960;2023-09-19T12:19:51;6.15;;;3.03;;
68484;SDS011;55472;50.060;21.960;2023-09-19T12:22:19;7.30;;;3.08;;
68484;SDS011;55472;50.060;21.960;2023-09-19T12:24:48;10.25;;;4.40;;
68484;SDS011;55472;50.060;21.960;2023-09-19T12:27:16;5.35;;;2.70;;
68484;SDS011;55472;50.060;21.960;2023-09-19T12:29:48;5.00;;;2.93;;
68484;SDS011;55472;50.060;21.960;2023-09-19T12:32:15;6.03;;;2.80;;
68484;SDS011;55472;50.060;21.960;2023-09-19T12:34:51;5.60;;;2.58;;
68484;SDS011;55472;50.060;21.960;2023-09-19T12:37:18;6.05;;;2.70;;
68484;SDS011;55472;50.060;21.960;2023-09-19T12:39:48;5.38;;;2.95;;
68484;SDS011;55472;50.060;21.960;2023-09-19T12:42:19;6.50;;;3.40;;
68484;SDS011;55472;50.060;21.960;2023-09-19T12:44:54;7.10;;;3.83;;
68484;SDS011;55472;50.060;21.960;2023-09-19T12:47:27;8.25;;;4.10;;
68484;SDS011;55472;50.060;21.960;2023-09-19T12:52:55;8.77;;;4.57;;
68484;SDS011;55472;50.060;21.960;2023-09-19T13:00:39;9.43;;;5.50;;
68484;SDS011;55472;50.060;21.960;2023-09-19T13:03:12;10.68;;;5.32;;
68484;SDS011;55472;50.060;21.960;2023-09-19T13:05:55;7.80;;;4.80;;
68484;SDS011;55472;50.060;21.960;2023-09-19T13:08:38;8.00;;;4.43;;
68484;SDS011;55472;50.060;21.960;2023-09-19T13:11:08;8.43;;;4.53;;
68484;SDS011;55472;50.060;21.960;2023-09-19T13:13:47;8.45;;;4.50;;
68484;SDS011;55472;50.060;21.960;2023-09-19T13:16:53;9.00;;;4.47;;
68484;SDS011;55472;50.060;21.960;2023-09-19T13:25:17;9.13;;;4.60;;
68484;SDS011;55472;50.060;21.960;2023-09-19T13:27:45;8.55;;;4.20;;
68484;SDS011;55472;50.060;21.960;2023-09-19T13:30:23;8.70;;;4.28;;
68484;SDS011;55472;50.060;21.960;2023-09-19T13:32:51;9.02;;;4.22;;
68484;SDS011;55472;50.060;21.960;2023-09-19T13:35:19;10.47;;;4.97;;
68484;SDS011;55472;50.060;21.960;2023-09-19T13:37:46;7.57;;;4.15;;
68484;SDS011;55472;50.060;21.960;2023-09-19T13:40:14;9.70;;;3.75;;
68484;SDS011;55472;50.060;21.960;2023-09-19T13:42:41;7.82;;;3.67;;
68484;SDS011;55472;50.060;21.960;2023-09-19T13:45:08;9.10;;;3.88;;
68484;SDS011;55472;50.060;21.960;2023-09-19T13:47:41;6.67;;;3.40;;
68484;SDS011;55472;50.060;21.960;2023-09-19T13:50:07;8.43;;;3.50;;
68484;SDS011;55472;50.060;21.960;2023-09-19T13:52:34;8.23;;;3.47;;
68484;SDS011;55472;50.060;21.960;2023-09-19T13:55:00;7.13;;;3.40;;
68484;SDS011;55472;50.060;21.960;2023-09-19T13:57:27;8.13;;;3.88;;
68484;SDS011;55472;50.060;21.960;2023-09-19T13:59:54;7.90;;;4.17;;
68484;SDS011;55472;50.060;21.960;2023-09-19T14:02:21;12.35;;;4.40;;
68484;SDS011;55472;50.060;21.960;2023-09-19T14:04:48;8.05;;;4.40;;
68484;SDS011;55472;50.060;21.960;2023-09-19T14:07:15;8.95;;;4.28;;
68484;SDS011;55472;50.060;21.960;2023-09-19T14:09:43;8.20;;;4.32;;
68484;SDS011;55472;50.060;21.960;2023-09-19T14:12:11;9.57;;;4.20;;
68484;SDS011;55472;50.060;21.960;2023-09-19T14:14:37;10.25;;;4.60;;
68484;SDS011;55472;50.060;21.960;2023-09-19T14:17:04;11.70;;;5.10;;
68484;SDS011;55472;50.060;21.960;2023-09-19T14:19:32;9.02;;;4.60;;
68484;SDS011;55472;50.060;21.960;2023-09-19T14:22:00;10.43;;;5.10;;
68484;SDS011;55472;50.060;21.960;2023-09-19T14:24:32;10.33;;;4.67;;
68484;SDS011;55472;50.060;21.960;2023-09-19T14:27:00;8.95;;;5.00;;
68484;SDS011;55472;50.060;21.960;2023-09-19T14:29:26;11.00;;;5.38;;
68484;SDS011;55472;50.060;21.960;2023-09-19T14:31:52;10.38;;;5.50;;
68484;SDS011;55472;50.060;21.960;2023-09-19T14:34:18;11.35;;;4.88;;
68484;SDS011;55472;50.060;21.960;2023-09-19T14:36:45;11.73;;;5.07;;
68484;SDS011;55472;50.060;21.960;2023-09-19T14:39:11;9.23;;;5.30;;
68484;SDS011;55472;50.060;21.960;2023-09-19T14:41:37;12.18;;;5.80;;
68484;SDS011;55472;50.060;21.960;2023-09-19T14:44:04;11.57;;;5.20;;
68484;SDS011;55472;50.060;21.960;2023-09-19T14:46:30;11.23;;;5.43;;
68484;SDS011;55472;50.060;21.960;2023-09-19T14:48:56;13.17;;;5.93;;
68484;SDS011;55472;50.060;21.960;2023-09-19T14:51:28;10.93;;;5.60;;
68484;SDS011;55472;50.060;21.960;2023-09-19T14:53:55;9.35;;;5.25;;
68484;SDS011;55472;50.060;21.960;2023-09-19T14:56:22;10.80;;;5.47;;
68484;SDS011;55472;50.060;21.960;2023-09-19T14:58:50;10.95;;;5.65;;
68484;SDS011;55472;50.060;21.960;2023-09-19T15:01:17;12.57;;;5.80;;
68484;SDS011;55472;50.060;21.960;2023-09-19T15:03:43;10.45;;;5.63;;
68484;SDS011;55472;50.060;21.960;2023-09-19T15:06:10;10.85;;;5.57;;
68484;SDS011;55472;50.060;21.960;2023-09-19T15:08:40;11.30;;;5.85;;
68484;SDS011;55472;50.060;21.960;2023-09-19T15:11:11;9.65;;;5.55;;
68484;SDS011;55472;50.060;21.960;2023-09-19T15:13:38;11.10;;;6.17;;
68484;SDS011;55472;50.060;21.960;2023-09-19T15:16:05;10.52;;;5.63;;
68484;SDS011;55472;50.060;21.960;2023-09-19T15:18:38;10.85;;;5.95;;
68484;SDS011;55472;50.060;21.960;2023-09-19T15:21:10;10.60;;;5.93;;
68484;SDS011;55472;50.060;21.960;2023-09-19T15:23:38;12.50;;;5.80;;
68484;SDS011;55472;50.060;21.960;2023-09-19T15:26:07;12.07;;;5.77;;
68484;SDS011;55472;50.060;21.960;2023-09-19T15:28:42;10.40;;;5.85;;
68484;SDS011;55472;50.060;21.960;2023-09-19T15:31:09;11.30;;;6.22;;
68484;SDS011;55472;50.060;21.960;2023-09-19T15:33:37;11.88;;;6.15;;
68484;SDS011;55472;50.060;21.960;2023-09-19T15:38:31;12.43;;;6.57;;
68484;SDS011;55472;50.060;21.960;2023-09-19T15:41:19;13.13;;;5.82;;
68484;SDS011;55472;50.060;21.960;2023-09-19T15:43:48;10.30;;;6.15;;
68484;SDS011;55472;50.060;21.960;2023-09-19T15:46:15;11.95;;;5.95;;
68484;SDS011;55472;50.060;21.960;2023-09-19T15:48:41;10.05;;;5.38;;
68484;SDS011;55472;50.060;21.960;2023-09-19T15:51:08;10.57;;;5.53;;
68484;SDS011;55472;50.060;21.960;2023-09-19T15:56:11;9.80;;;5.13;;
68484;SDS011;55472;50.060;21.960;2023-09-19T15:58:41;10.20;;;5.45;;
68484;SDS011;55472;50.060;21.960;2023-09-19T16:01:10;9.95;;;5.50;;
68484;SDS011;55472;50.060;21.960;2023-09-19T16:03:37;9.73;;;5.57;;
68484;SDS011;55472;50.060;21.960;2023-09-19T16:06:15;9.23;;;5.75;;
68484;SDS011;55472;50.060;21.960;2023-09-19T16:08:45;12.85;;;6.47;;
68484;SDS011;55472;50.060;21.960;2023-09-19T16:11:13;13.07;;;6.95;;
68484;SDS011;55472;50.060;21.960;2023-09-19T16:13:41;11.50;;;7.28;;
68484;SDS011;55472;50.060;21.960;2023-09-19T16:16:08;12.03;;;6.93;;
68484;SDS011;55472;50.060;21.960;2023-09-19T16:18:37;12.43;;;7.55;;